createdAt,value
2018-03-30T00:02:17.538Z,71.80
2018-03-30T00:04:45.035Z,71.70
2018-03-30T00:07:12.528Z,72.10
2018-03-30T00:09:51.871Z,72.40
2018-03-30T00:12:19.359Z,72.50
2018-03-30T00:14:46.862Z,72.40
2018-03-30T00:17:15.168Z,72.50
2018-03-30T00:19:43.391Z,72.80
2018-03-30T00:22:10.904Z,72.70
2018-03-30T00:24:38.413Z,72.80
2018-03-30T00:27:05.903Z,72.70
2018-03-30T00:29:33.407Z,72.70
2018-03-30T00:32:00.909Z,72.70
2018-03-30T00:34:29.166Z,72.60
2018-03-30T00:36:56.652Z,72.60
2018-03-30T00:39:24.167Z,73.10
2018-03-30T00:41:51.664Z,73.10
2018-03-30T00:44:19.169Z,73.10
2018-03-30T00:46:46.675Z,73.20
2018-03-30T00:49:14.923Z,73.30
2018-03-30T00:51:42.407Z,73.30
2018-03-30T00:54:10.663Z,73.50
2018-03-30T00:56:38.151Z,73.40
2018-03-30T00:59:05.654Z,73.50
2018-03-30T01:01:33.143Z,73.60
2018-03-30T01:04:01.404Z,73.70
2018-03-30T01:06:28.906Z,73.60
2018-03-30T01:08:56.399Z,73.70
2018-03-30T01:11:23.893Z,73.80
2018-03-30T01:13:52.151Z,74.10
2018-03-30T01:16:19.664Z,74.10
2018-03-30T01:18:47.152Z,74.30
2018-03-30T01:21:14.639Z,74.50
2018-03-30T01:23:42.127Z,74.60
2018-03-30T01:26:09.613Z,74.70
2018-03-30T01:28:37.108Z,74.80
2018-03-30T01:31:04.600Z,74.80
2018-03-30T01:33:32.098Z,74.80
2018-03-30T01:35:59.588Z,74.60
2018-03-30T01:38:27.096Z,74.60
2018-03-30T01:40:54.636Z,74.60
2018-03-30T01:43:22.083Z,74.60
2018-03-30T01:45:50.335Z,74.40
2018-03-30T01:48:17.824Z,74.40
2018-03-30T01:50:46.115Z,74.30
2018-03-30T01:53:13.607Z,74.30
2018-03-30T01:55:41.096Z,74.10
2018-03-30T01:58:09.359Z,74.20
2018-03-30T02:00:36.861Z,74.10
2018-03-30T02:03:04.347Z,74.40
2018-03-30T02:05:31.840Z,75.10
2018-03-30T02:07:59.327Z,74.40
2018-03-30T02:10:26.829Z,74.40
2018-03-30T02:12:54.335Z,74.30
2018-03-30T02:15:22.591Z,74.30
2018-03-30T02:17:50.079Z,74.30
2018-03-30T02:20:17.622Z,74.10
2018-03-30T02:22:45.891Z,74.00
2018-03-30T02:25:14.171Z,73.90
2018-03-30T02:27:42.423Z,73.90
2018-03-30T02:30:09.916Z,73.90
2018-03-30T02:32:37.413Z,73.90
2018-03-30T02:35:04.917Z,74.20
2018-03-30T02:37:33.187Z,74.60
2018-03-30T02:40:00.688Z,74.50
2018-03-30T02:42:28.215Z,73.90
2018-03-30T02:44:56.470Z,74.40
2018-03-30T02:47:23.981Z,74.40
2018-03-30T02:49:51.487Z,74.30
2018-03-30T02:52:18.992Z,74.30
2018-03-30T02:54:46.483Z,74.30
2018-03-30T02:57:13.983Z,74.40
2018-03-30T02:59:42.261Z,74.40
2018-03-30T03:02:10.516Z,74.40
2018-03-30T03:04:38.021Z,74.30
2018-03-30T03:07:05.523Z,74.30
2018-03-30T03:09:33.013Z,74.40
2018-03-30T03:12:01.275Z,75.10
2018-03-30T03:14:28.784Z,75.00
2018-03-30T03:16:56.275Z,75.30
2018-03-30T03:19:23.758Z,75.10
2018-03-30T03:21:52.019Z,75.20
2018-03-30T03:24:19.520Z,75.20
2018-03-30T03:26:47.028Z,75.30
2018-03-30T03:29:14.526Z,75.00
2018-03-30T03:31:42.021Z,74.70
2018-03-30T03:34:09.530Z,74.50
2018-03-30T03:36:37.783Z,74.10
2018-03-30T03:39:05.279Z,74.10
2018-03-30T03:41:32.853Z,73.80
2018-03-30T03:44:00.414Z,73.70
2018-03-30T03:46:27.901Z,73.60
2018-03-30T03:48:55.387Z,73.30
2018-03-30T03:51:22.891Z,73.00
2018-03-30T03:53:50.384Z,73.10
2018-03-30T03:56:17.892Z,73.20
2018-03-30T03:58:46.152Z,73.30
2018-03-30T04:01:14.403Z,73.30
2018-03-30T04:03:41.904Z,73.30
2018-03-30T04:06:09.393Z,73.50
2018-03-30T04:08:36.887Z,73.60
2018-03-30T04:11:04.375Z,73.80
2018-03-30T04:13:31.876Z,73.90
2018-03-30T04:15:59.366Z,73.70
2018-03-30T04:18:27.624Z,74.00
2018-03-30T04:20:55.112Z,74.00
2018-03-30T04:23:23.369Z,74.40
2018-03-30T04:25:50.851Z,74.40
2018-03-30T04:28:19.148Z,74.10
2018-03-30T04:30:46.636Z,74.10
2018-03-30T04:33:14.123Z,74.30
2018-03-30T04:35:42.405Z,75.20
2018-03-30T04:38:10.673Z,74.60
2018-03-30T04:40:38.179Z,74.50
2018-03-30T04:43:05.671Z,74.70
2018-03-30T04:45:33.174Z,74.80
2018-03-30T04:48:00.678Z,75.10
2018-03-30T04:50:28.163Z,75.20
2018-03-30T04:52:55.655Z,75.20
2018-03-30T04:55:23.151Z,75.10
2018-03-30T04:57:50.683Z,75.30
2018-03-30T05:00:18.171Z,75.40
2018-03-30T05:02:45.655Z,75.40
2018-03-30T05:05:13.911Z,75.40
2018-03-30T05:07:41.420Z,75.40
2018-03-30T05:10:08.914Z,75.40
2018-03-30T05:12:36.398Z,75.30
2018-03-30T05:15:03.895Z,75.30
2018-03-30T05:17:31.399Z,75.40
2018-03-30T05:19:58.883Z,75.50
2018-03-30T05:22:26.375Z,75.80
2018-03-30T05:24:53.875Z,76.50
2018-03-30T05:27:21.368Z,77.00
2018-03-30T05:29:49.640Z,77.60
2018-03-30T05:32:17.899Z,78.00
2018-03-30T05:34:45.512Z,78.00
2018-03-30T05:37:13.035Z,78.20
2018-03-30T05:39:41.305Z,78.20
2018-03-30T05:42:09.566Z,79.20
2018-03-30T05:44:37.071Z,78.40
2018-03-30T05:47:04.579Z,78.40
2018-03-30T05:49:32.068Z,78.70
2018-03-30T05:52:00.318Z,79.50
2018-03-30T05:54:28.597Z,79.80
2018-03-30T05:56:56.092Z,79.80
2018-03-30T05:59:23.591Z,80.30
2018-03-30T06:01:51.084Z,80.20
2018-03-30T06:04:19.351Z,80.00
2018-03-30T06:06:46.843Z,79.80
2018-03-30T06:09:14.335Z,79.60
2018-03-30T06:11:41.838Z,79.30
2018-03-30T06:14:10.099Z,79.40
2018-03-30T06:16:37.595Z,79.40
2018-03-30T06:19:05.122Z,79.90
2018-03-30T06:21:32.595Z,79.90
2018-03-30T06:24:00.847Z,79.60
2018-03-30T06:26:28.359Z,79.60
2018-03-30T06:28:55.851Z,79.30
2018-03-30T06:31:23.342Z,79.00
2018-03-30T06:33:51.599Z,79.30
2018-03-30T06:36:19.183Z,79.30
2018-03-30T06:38:47.451Z,79.00
2018-03-30T06:41:15.707Z,79.50
2018-03-30T06:43:43.223Z,79.50
2018-03-30T06:46:10.715Z,79.40
2018-03-30T06:48:39.231Z,79.80
2018-03-30T06:51:07.486Z,79.60
2018-03-30T06:53:34.996Z,79.60
2018-03-30T06:56:02.492Z,79.10
2018-03-30T06:58:29.994Z,79.60
2018-03-30T07:00:57.498Z,80.10
2018-03-30T07:03:25.011Z,81.00
2018-03-30T07:05:52.500Z,80.80
2018-03-30T07:08:19.996Z,80.50
2018-03-30T07:10:49.003Z,80.80
2018-03-30T07:13:17.275Z,81.10
2018-03-30T07:15:44.877Z,81.10
2018-03-30T07:18:12.383Z,81.50
2018-03-30T07:20:39.893Z,81.50
2018-03-30T07:23:07.391Z,81.60
2018-03-30T07:25:34.887Z,82.00
2018-03-30T07:28:03.167Z,81.60
2018-03-30T07:30:31.420Z,81.50
2018-03-30T07:32:59.683Z,81.30
2018-03-30T07:35:27.175Z,81.30
2018-03-30T07:37:55.440Z,80.70
2018-03-30T07:40:23.700Z,80.40
2018-03-30T07:42:51.207Z,80.20
2018-03-30T07:45:18.703Z,80.30
2018-03-30T07:47:46.327Z,80.40
2018-03-30T07:50:13.815Z,79.40
2018-03-30T07:52:41.312Z,75.80
2018-03-30T07:55:09.855Z,73.10
2018-03-30T07:57:37.387Z,73.00
2018-03-30T08:00:04.962Z,71.00
2018-03-30T08:02:32.481Z,68.40
2018-03-30T08:04:59.991Z,68.40
2018-03-30T08:07:27.488Z,67.70
2018-03-30T08:09:55.750Z,64.30
2018-03-30T08:12:23.248Z,64.20
2018-03-30T08:14:50.828Z,63.60
2018-03-30T08:17:18.347Z,63.30
2018-03-30T08:19:46.614Z,61.50
2018-03-30T08:22:14.881Z,60.20
2018-03-30T08:24:43.150Z,60.40
2018-03-30T08:27:10.668Z,60.40
2018-03-30T08:29:38.183Z,60.70
2018-03-30T08:32:06.455Z,61.30
2018-03-30T08:34:34.720Z,60.10
2018-03-30T08:37:02.236Z,60.10
2018-03-30T08:39:29.735Z,59.80
2018-03-30T08:41:57.226Z,59.90
2018-03-30T08:44:24.739Z,59.60
2018-03-30T08:46:52.236Z,60.60
2018-03-30T08:49:19.795Z,60.00
2018-03-30T08:51:47.270Z,61.50
2018-03-30T08:54:14.768Z,60.30
2018-03-30T08:56:42.271Z,60.20
2018-03-30T08:59:10.531Z,59.10
2018-03-30T09:01:38.026Z,59.10
2018-03-30T09:04:05.519Z,57.70
2018-03-30T09:06:33.022Z,56.30
2018-03-30T09:09:01.324Z,57.80
2018-03-30T09:11:28.837Z,57.80
2018-03-30T09:13:56.363Z,59.30
2018-03-30T09:16:23.852Z,59.70
2018-03-30T09:18:51.352Z,58.60
2018-03-30T09:21:18.855Z,58.20
2018-03-30T09:23:46.363Z,59.30
2018-03-30T09:26:13.859Z,58.20
2018-03-30T09:28:41.375Z,58.30
2018-03-30T09:31:08.883Z,59.70
2018-03-30T09:33:36.374Z,58.20
2018-03-30T09:36:04.650Z,59.50
2018-03-30T09:38:32.929Z,59.00
2018-03-30T09:41:01.196Z,60.60
2018-03-30T09:43:29.470Z,60.20
2018-03-30T09:45:56.963Z,60.20
2018-03-30T09:48:24.455Z,58.20
2018-03-30T09:50:51.964Z,58.80
2018-03-30T09:53:20.249Z,57.60
2018-03-30T09:55:47.745Z,57.60
2018-03-30T09:58:15.232Z,56.40
2018-03-30T10:00:43.519Z,56.30
2018-03-30T10:03:11.792Z,56.70
2018-03-30T10:05:40.059Z,56.90
2018-03-30T10:08:07.555Z,56.90
2018-03-30T10:10:35.053Z,57.90
2018-03-30T10:13:02.557Z,57.30
2018-03-30T10:15:30.830Z,58.30
2018-03-30T10:17:59.095Z,58.70
2018-03-30T10:20:27.485Z,57.00
2018-03-30T10:22:55.905Z,56.90
2018-03-30T10:25:23.402Z,58.30
2018-03-30T10:27:50.899Z,58.50
2018-03-30T10:30:18.415Z,57.90
2018-03-30T10:32:45.894Z,58.40
2018-03-30T10:35:14.167Z,56.70
2018-03-30T10:37:42.438Z,56.90
2018-03-30T10:40:10.704Z,57.30
2018-03-30T10:42:38.200Z,56.70
2018-03-30T10:45:05.695Z,57.00
2018-03-30T10:47:33.206Z,56.70
2018-03-30T10:50:01.463Z,56.50
2018-03-30T10:52:29.735Z,57.00
2018-03-30T10:54:57.244Z,57.00
2018-03-30T10:57:24.739Z,55.50
2018-03-30T10:59:52.243Z,55.20
2018-03-30T11:02:19.752Z,56.10
2018-03-30T11:04:47.263Z,55.30
2018-03-30T11:07:14.767Z,55.00
2018-03-30T11:09:42.292Z,55.10
2018-03-30T11:12:09.818Z,54.70
2018-03-30T11:14:38.081Z,53.80
2018-03-30T11:17:06.365Z,53.20
2018-03-30T11:19:34.631Z,53.10
2018-03-30T11:22:03.644Z,53.40
2018-03-30T11:24:31.907Z,51.40
2018-03-30T11:27:00.188Z,52.50
2018-03-30T11:29:28.459Z,50.90
2018-03-30T11:31:56.750Z,50.70
2018-03-30T11:34:25.015Z,52.30
2018-03-30T11:36:53.283Z,54.30
2018-03-30T11:39:20.775Z,54.30
2018-03-30T11:41:48.298Z,52.10
2018-03-30T11:44:15.808Z,52.60
2018-03-30T11:46:43.305Z,51.40
2018-03-30T11:49:10.803Z,53.00
2018-03-30T11:51:38.311Z,52.80
2018-03-30T11:54:05.802Z,52.90
2018-03-30T11:56:34.079Z,51.70
2018-03-30T11:59:02.359Z,52.00
2018-03-30T12:01:30.614Z,51.30
2018-03-30T12:03:58.231Z,51.30
2018-03-30T12:06:25.723Z,53.50
2018-03-30T12:08:53.215Z,52.40
2018-03-30T12:11:21.471Z,52.30
2018-03-30T12:13:48.987Z,52.30
2018-03-30T12:16:16.505Z,51.60
2018-03-30T12:18:44.766Z,49.90
2018-03-30T12:21:13.030Z,51.50
2018-03-30T12:23:40.593Z,51.50
2018-03-30T12:26:08.063Z,50.50
2018-03-30T12:28:37.074Z,50.40
2018-03-30T12:31:05.335Z,49.70
2018-03-30T12:33:32.843Z,49.70
2018-03-30T12:36:00.370Z,50.50
2018-03-30T12:38:28.630Z,49.90
2018-03-30T12:40:56.133Z,49.90
2018-03-30T12:43:23.627Z,48.90
2018-03-30T12:45:51.128Z,49.70
2018-03-30T12:48:19.414Z,49.40
2018-03-30T12:50:46.915Z,49.40
2018-03-30T12:53:14.440Z,47.80
2018-03-30T12:55:41.954Z,48.70
2018-03-30T12:58:09.531Z,47.50
2018-03-30T13:00:37.795Z,48.00
2018-03-30T13:03:06.112Z,48.00
2018-03-30T13:05:33.627Z,47.90
2018-03-30T13:08:01.139Z,48.80
2018-03-30T13:10:28.626Z,47.50
2018-03-30T13:12:57.631Z,47.90
2018-03-30T13:15:25.883Z,47.20
2018-03-30T13:17:53.397Z,47.20
2018-03-30T13:20:20.908Z,47.10
2018-03-30T13:22:48.420Z,46.50
2018-03-30T13:25:15.959Z,45.80
2018-03-30T13:27:44.226Z,47.10
2018-03-30T13:30:12.501Z,46.00
2018-03-30T13:32:39.992Z,45.80
2018-03-30T13:35:07.485Z,46.50
2018-03-30T13:37:34.983Z,46.00
2018-03-30T13:40:03.239Z,44.20
2018-03-30T13:42:31.498Z,44.00
2018-03-30T13:44:59.004Z,43.90
2018-03-30T13:47:27.281Z,43.10
2018-03-30T13:49:55.535Z,42.10
2018-03-30T14:05:49.216Z,39.30
2018-03-30T14:08:20.149Z,37.50
2018-03-30T14:10:51.192Z,38.10
2018-03-30T14:13:19.447Z,37.50
2018-03-30T14:15:48.723Z,37.50
2018-03-30T14:18:18.871Z,36.70
2018-03-30T14:20:47.131Z,37.50
2018-03-30T14:23:14.628Z,37.10
2018-03-30T14:25:43.839Z,35.90
2018-03-30T14:28:34.907Z,35.90
2018-03-30T14:31:22.435Z,36.50
2018-03-30T14:33:51.558Z,36.60
2018-03-30T14:36:21.680Z,35.50
2018-03-30T14:39:03.488Z,34.80
2018-03-30T14:41:30.999Z,34.70
2018-03-30T14:44:00.046Z,33.60
2018-03-30T14:46:30.343Z,33.00
2018-03-30T14:48:58.600Z,30.80
2018-03-30T14:51:27.576Z,30.70
2018-03-30T14:53:58.079Z,30.50
2018-03-30T15:10:11.439Z,30.90
2018-03-30T15:12:43.646Z,32.00
2018-03-30T15:15:17.106Z,30.00
2018-03-30T15:17:48.107Z,29.40
2018-03-30T15:20:16.464Z,29.10
2018-03-30T15:23:11.292Z,28.70
2018-03-30T15:25:41.373Z,29.10
2018-03-30T15:28:08.853Z,28.70
2018-03-30T15:30:40.103Z,29.60
2018-03-30T15:33:10.627Z,31.30
2018-03-30T15:35:38.971Z,32.30
2018-03-30T15:38:07.259Z,33.80
2018-03-30T15:40:36.462Z,34.60
2018-03-30T15:43:20.662Z,34.50
2018-03-30T15:45:53.948Z,35.90
2018-03-30T15:48:21.493Z,37.20
2018-03-30T15:50:50.992Z,38.70
2018-03-30T15:53:18.013Z,40.20
2018-03-30T15:55:46.312Z,43.10
2018-03-30T15:58:13.859Z,43.70
2018-03-30T16:00:41.398Z,44.20
2018-03-30T16:03:09.692Z,45.80
2018-03-30T16:05:37.230Z,45.70
2018-03-30T16:08:05.517Z,47.50
2018-03-30T16:10:36.588Z,48.20
2018-03-30T16:13:04.161Z,48.20
2018-03-30T16:15:31.694Z,48.80
2018-03-30T16:17:59.263Z,49.40
2018-03-30T16:20:26.336Z,49.90
2018-03-30T16:22:53.378Z,50.30
2018-03-30T16:25:20.409Z,50.80
2018-03-30T16:27:47.431Z,51.30
2018-03-30T16:30:14.471Z,51.70
2018-03-30T16:32:42.271Z,52.20
2018-03-30T16:35:09.298Z,52.00
2018-03-30T16:37:36.371Z,52.40
2018-03-30T16:40:03.391Z,52.50
2018-03-30T16:42:30.415Z,52.70
2018-03-30T16:44:57.456Z,52.60
2018-03-30T16:47:24.657Z,53.00
2018-03-30T16:49:51.780Z,53.40
2018-03-30T16:52:18.857Z,53.60
2018-03-30T16:54:45.910Z,53.60
2018-03-30T16:57:12.949Z,53.80
2018-03-30T16:59:39.987Z,54.00
2018-03-30T17:02:07.032Z,54.20
2018-03-30T17:04:34.293Z,54.20
2018-03-30T17:07:01.329Z,54.40
2018-03-30T17:09:28.394Z,54.70
2018-03-30T17:11:55.441Z,55.00
2018-03-30T17:14:22.463Z,55.00
2018-03-30T17:16:50.256Z,55.40
2018-03-30T17:19:17.281Z,55.40
2018-03-30T17:21:44.327Z,55.60
2018-03-30T17:24:11.333Z,55.70
2018-03-30T17:26:38.340Z,55.90
2018-03-30T17:29:05.347Z,56.10
2018-03-30T17:31:33.123Z,56.50
2018-03-30T17:34:00.138Z,56.40
2018-03-30T17:36:27.144Z,56.70
2018-03-30T17:38:54.163Z,56.90
2018-03-30T17:41:21.957Z,57.50
2018-03-30T17:43:48.973Z,57.40
2018-03-30T17:46:16.991Z,57.90
2018-03-30T17:48:44.022Z,57.90
2018-03-30T17:51:11.056Z,58.20
2018-03-30T17:53:38.079Z,58.30
2018-03-30T17:56:05.864Z,58.80
2018-03-30T17:58:32.903Z,58.80
2018-03-30T18:00:59.957Z,58.80
2018-03-30T18:03:27.045Z,59.20
2018-03-30T18:05:54.880Z,59.50
2018-03-30T18:08:21.879Z,59.50
2018-03-30T18:10:48.900Z,59.50
2018-03-30T18:13:15.911Z,59.60
2018-03-30T18:15:43.679Z,59.80
2018-03-30T18:18:10.678Z,59.80
2018-03-30T18:20:37.689Z,60.00
2018-03-30T18:23:04.690Z,60.10
2018-03-30T18:25:31.786Z,60.20
2018-03-30T18:27:58.838Z,60.20
2018-03-30T18:30:25.927Z,60.30
2018-03-30T18:32:53.711Z,60.80
2018-03-30T18:35:21.490Z,60.70
2018-03-30T18:37:48.507Z,60.70
2018-03-30T18:40:15.520Z,61.00
2018-03-30T18:42:42.582Z,61.10
2018-03-30T18:45:09.579Z,61.40
2018-03-30T18:47:36.583Z,61.60
2018-03-30T18:50:04.188Z,61.80
2018-03-30T18:52:32.063Z,62.10
2018-03-30T18:54:59.088Z,62.10
2018-03-30T18:57:26.991Z,62.40
2018-03-30T18:59:53.998Z,62.40
2018-03-30T19:02:21.790Z,62.50
2018-03-30T19:04:48.802Z,62.50
2018-03-30T19:07:15.803Z,62.70
2018-03-30T19:09:42.819Z,62.70
2018-03-30T19:12:09.837Z,62.80
2018-03-30T19:14:36.855Z,62.60
2018-03-30T19:17:03.863Z,63.10
2018-03-30T19:19:31.034Z,63.00
2018-03-30T19:21:58.055Z,63.10
2018-03-30T19:24:25.851Z,63.10
2018-03-30T19:26:52.863Z,63.10
2018-03-30T19:29:20.647Z,63.60
2018-03-30T19:31:47.668Z,63.40
2018-03-30T19:34:15.449Z,64.10
2018-03-30T19:36:42.460Z,64.10
2018-03-30T19:39:10.235Z,64.10
2018-03-30T19:41:37.234Z,64.10
2018-03-30T19:44:04.284Z,64.30
2018-03-30T19:46:31.303Z,64.40
2018-03-30T19:48:58.307Z,64.60
2018-03-30T19:51:25.319Z,65.00
2018-03-30T19:53:52.339Z,65.30
2018-03-30T19:56:19.352Z,65.60
2018-03-30T19:58:46.383Z,65.70
2018-03-30T20:01:13.403Z,65.80
2018-03-30T20:03:40.407Z,65.90
2018-03-30T20:06:08.215Z,66.60
2018-03-30T20:08:35.239Z,66.50
2018-03-30T20:11:02.251Z,66.80
2018-03-30T20:13:29.295Z,67.10
2018-03-30T20:15:56.304Z,67.70
2018-03-30T20:18:23.328Z,67.50
2018-03-30T20:20:50.335Z,67.30
2018-03-30T20:23:17.401Z,67.30
2018-03-30T20:25:44.376Z,67.50
2018-03-30T20:28:11.410Z,67.50
2018-03-30T20:30:39.202Z,67.60
2018-03-30T20:33:06.211Z,67.50
2018-03-30T20:35:33.991Z,67.90
2018-03-30T20:38:01.010Z,67.70
2018-03-30T20:40:28.035Z,68.00
2018-03-30T20:42:55.043Z,69.00
2018-03-30T20:45:22.068Z,68.30
2018-03-30T20:47:49.840Z,68.40
2018-03-30T20:50:16.855Z,68.40
2018-03-30T20:52:43.871Z,68.40
2018-03-30T20:55:10.892Z,68.60
2018-03-30T20:57:37.899Z,68.50
2018-03-30T21:00:04.936Z,68.80
2018-03-30T21:02:31.943Z,69.00
2018-03-30T21:04:58.970Z,69.20
2018-03-30T21:07:25.986Z,69.10
2018-03-30T21:09:52.987Z,69.00
2018-03-30T21:12:19.992Z,69.00
2018-03-30T21:14:47.787Z,68.80
2018-03-30T21:17:14.792Z,68.70
2018-03-30T21:19:42.566Z,68.60
2018-03-30T21:22:10.338Z,69.20
2018-03-30T21:24:38.119Z,68.60
2018-03-30T21:27:05.904Z,68.70
2018-03-30T21:29:32.953Z,68.40
2018-03-30T21:31:59.964Z,68.60
2018-03-30T21:34:27.774Z,68.60
2018-03-30T21:36:54.776Z,68.50
2018-03-30T21:39:22.600Z,68.10
2018-03-30T21:41:49.583Z,68.10
2018-03-30T21:44:17.368Z,68.20
2018-03-30T21:46:44.384Z,68.00
2018-03-30T21:49:11.412Z,68.10
2018-03-30T21:51:38.437Z,68.40
2018-03-30T21:54:05.447Z,68.60
2018-03-30T21:56:33.231Z,68.70
2018-03-30T21:59:00.237Z,68.70
2018-03-30T22:01:27.243Z,68.40
2018-03-30T22:03:54.263Z,68.80
2018-03-30T22:06:21.274Z,68.60
2018-03-30T22:08:48.303Z,68.60
2018-03-30T22:11:15.307Z,68.80
2018-03-30T22:13:42.333Z,68.90
2018-03-30T22:16:10.115Z,69.40
2018-03-30T22:18:37.123Z,69.30
2018-03-30T22:21:04.137Z,69.50
2018-03-30T22:23:31.143Z,69.30
2018-03-30T22:25:58.926Z,69.00
2018-03-30T22:28:25.940Z,69.00
2018-03-30T22:30:52.947Z,69.20
2018-03-30T22:33:19.967Z,69.60
2018-03-30T22:35:46.995Z,69.90
2018-03-30T22:38:14.785Z,69.70
2018-03-30T22:40:41.803Z,69.70
2018-03-30T22:43:09.595Z,70.00
2018-03-30T22:45:36.602Z,70.00
2018-03-30T22:48:03.619Z,70.70
2018-03-30T22:50:30.654Z,70.60
2018-03-30T22:52:57.672Z,70.60
2018-03-30T22:55:24.696Z,69.70
2018-03-30T22:57:51.720Z,69.80
2018-03-30T23:00:18.732Z,70.20
2018-03-30T23:02:45.757Z,70.60
2018-03-30T23:05:12.786Z,71.00
2018-03-30T23:07:40.555Z,73.40
2018-03-30T23:10:08.331Z,73.60
2018-03-30T23:12:36.107Z,73.60
2018-03-30T23:15:03.107Z,73.60
2018-03-30T23:17:30.119Z,73.60
2018-03-30T23:19:57.132Z,73.40
2018-03-30T23:22:25.031Z,72.90
2018-03-30T23:24:52.039Z,72.90
2018-03-30T23:27:19.807Z,72.70
2018-03-30T23:29:47.575Z,72.60
2018-03-30T23:32:15.358Z,72.40
2018-03-30T23:34:42.379Z,72.40
2018-03-30T23:37:10.159Z,72.80
2018-03-30T23:39:37.167Z,72.80
2018-03-30T23:42:04.174Z,73.10
2018-03-30T23:44:31.182Z,73.00
2018-03-30T23:46:58.959Z,73.00
2018-03-30T23:49:26.734Z,73.40
2018-03-30T23:51:53.740Z,73.40
2018-03-30T23:54:20.751Z,73.40
2018-03-30T23:56:47.763Z,74.40
2018-03-30T23:59:15.540Z,75.90
